createdAt,value
2022-09-09T00:02:25.816Z,2.30
2022-09-09T00:05:01.310Z,2.00
2022-09-09T00:07:39.424Z,2.67
2022-09-09T00:10:16.504Z,3.30
2022-09-09T00:12:51.423Z,1.67
2022-09-09T00:15:21.847Z,2.63
2022-09-09T00:17:55.171Z,1.83
2022-09-09T00:20:30.368Z,1.77
2022-09-09T00:23:02.737Z,1.70
2022-09-09T00:25:36.162Z,1.80
2022-09-09T00:28:13.863Z,2.20
2022-09-09T00:30:44.160Z,1.90
2022-09-09T00:33:16.290Z,2.03
2022-09-09T00:38:16.753Z,2.03
2022-09-09T00:40:50.083Z,2.40
2022-09-09T00:43:30.955Z,2.80
2022-09-09T00:46:15.864Z,2.58
2022-09-09T00:48:51.972Z,2.10
2022-09-09T00:51:25.846Z,2.67
2022-09-09T00:54:01.814Z,3.03
2022-09-09T00:56:33.955Z,2.28
2022-09-09T00:59:10.738Z,2.13
2022-09-09T01:01:40.575Z,2.58
2022-09-09T01:04:12.991Z,2.67
2022-09-09T01:06:42.013Z,3.03
2022-09-09T01:09:15.277Z,2.63
2022-09-09T01:11:50.826Z,2.92
2022-09-09T01:14:27.468Z,3.17
2022-09-09T01:16:58.317Z,3.10
2022-09-09T01:19:32.178Z,3.42
2022-09-09T01:22:06.775Z,3.30
2022-09-09T01:24:41.358Z,3.50
2022-09-09T01:27:20.771Z,4.75
2022-09-09T01:29:50.578Z,2.60
2022-09-09T01:32:42.074Z,3.60
2022-09-09T01:35:15.752Z,3.72
2022-09-09T01:37:44.759Z,3.47
2022-09-09T01:40:14.052Z,3.55
2022-09-09T01:42:44.869Z,3.30
2022-09-09T01:45:14.051Z,3.05
2022-09-09T01:47:43.362Z,3.35
2022-09-09T01:50:20.760Z,4.03
2022-09-09T01:52:52.321Z,4.60
2022-09-09T01:55:31.086Z,4.53
2022-09-09T01:58:07.677Z,3.92
2022-09-09T02:00:41.049Z,4.22
2022-09-09T02:03:14.040Z,5.38
2022-09-09T02:05:57.767Z,3.20
2022-09-09T02:08:36.169Z,3.65
2022-09-09T02:11:09.863Z,3.20
2022-09-09T02:13:46.164Z,2.25
2022-09-09T02:16:19.429Z,1.92
2022-09-09T02:18:53.366Z,2.55
2022-09-09T02:21:30.566Z,2.42
2022-09-09T02:24:01.560Z,2.35
2022-09-09T02:26:34.347Z,2.45
2022-09-09T02:29:12.496Z,2.85
2022-09-09T02:31:42.999Z,1.80
2022-09-09T02:34:18.134Z,2.35
2022-09-09T02:36:48.742Z,2.40
2022-09-09T02:39:18.326Z,2.05
2022-09-09T02:41:48.324Z,2.60
2022-09-09T02:44:20.090Z,1.95
2022-09-09T02:47:06.507Z,1.83
2022-09-09T02:49:42.991Z,2.47
2022-09-09T02:52:17.493Z,2.58
2022-09-09T02:54:47.097Z,2.90
2022-09-09T02:57:18.981Z,2.35
2022-09-09T02:59:53.763Z,2.53
2022-09-09T03:04:57.041Z,3.03
2022-09-09T03:07:26.071Z,4.95
2022-09-09T03:09:55.956Z,2.60
2022-09-09T03:12:27.623Z,2.70
2022-09-09T03:14:57.905Z,2.70
2022-09-09T03:17:28.998Z,3.63
2022-09-09T03:19:58.803Z,2.70
2022-09-09T03:22:28.089Z,3.35
2022-09-09T03:25:00.371Z,3.00
2022-09-09T03:27:30.502Z,3.00
2022-09-09T03:30:04.795Z,3.63
2022-09-09T03:32:34.568Z,3.70
2022-09-09T03:35:04.169Z,3.28
2022-09-09T03:37:33.715Z,3.20
2022-09-09T03:40:02.955Z,3.28
2022-09-09T03:42:32.888Z,3.80
2022-09-09T03:45:04.161Z,3.13
2022-09-09T03:47:34.118Z,2.92
2022-09-09T03:50:09.556Z,3.08
2022-09-09T03:52:40.499Z,3.70
2022-09-09T03:55:11.664Z,3.38
2022-09-09T03:57:40.675Z,4.15
2022-09-09T04:00:13.782Z,3.53
2022-09-09T04:02:46.740Z,3.30
2022-09-09T04:05:18.514Z,4.43
2022-09-09T04:07:49.674Z,3.63
2022-09-09T04:10:18.684Z,3.55
2022-09-09T04:12:49.540Z,3.80
2022-09-09T04:15:20.455Z,3.78
2022-09-09T04:17:50.474Z,3.28
2022-09-09T04:20:20.379Z,4.97
2022-09-09T04:22:49.536Z,3.72
2022-09-09T04:25:18.791Z,3.60
2022-09-09T04:27:48.581Z,4.47
2022-09-09T04:30:18.252Z,3.53
2022-09-09T04:32:49.311Z,4.25
2022-09-09T04:35:28.101Z,4.17
2022-09-09T04:38:00.152Z,4.15
2022-09-09T04:40:31.741Z,3.40
2022-09-09T04:43:01.415Z,3.95
2022-09-09T04:45:31.335Z,3.65
2022-09-09T04:48:02.301Z,4.07
2022-09-09T04:50:32.991Z,3.75
2022-09-09T04:53:03.545Z,3.65
2022-09-09T04:55:33.387Z,3.78
2022-09-09T04:58:06.948Z,3.90
2022-09-09T05:00:36.810Z,3.78
2022-09-09T05:03:13.737Z,3.50
2022-09-09T05:05:43.569Z,3.67
2022-09-09T05:08:13.344Z,4.05
2022-09-09T05:10:43.016Z,4.18
2022-09-09T05:13:12.598Z,3.35
2022-09-09T05:15:44.271Z,3.70
2022-09-09T05:18:17.821Z,3.92
2022-09-09T05:20:47.286Z,3.78
2022-09-09T05:23:19.841Z,4.20
2022-09-09T05:25:58.211Z,4.45
2022-09-09T05:28:32.707Z,4.45
2022-09-09T05:31:04.949Z,4.30
2022-09-09T05:33:38.301Z,4.82
2022-09-09T05:36:08.986Z,4.22
2022-09-09T05:38:39.022Z,5.30
2022-09-09T05:41:08.664Z,6.47
2022-09-09T05:43:38.163Z,5.53
2022-09-09T05:46:08.591Z,5.70
2022-09-09T05:48:40.355Z,5.80
2022-09-09T05:51:11.673Z,5.45
2022-09-09T05:53:40.965Z,5.43
2022-09-09T05:56:12.262Z,5.85
2022-09-09T05:58:41.692Z,6.18
2022-09-09T06:01:17.866Z,6.37
2022-09-09T06:03:49.995Z,6.45
2022-09-09T06:06:22.479Z,4.90
2022-09-09T06:08:53.292Z,5.97
2022-09-09T06:11:23.829Z,5.47
2022-09-09T06:13:54.864Z,6.35
2022-09-09T06:16:25.554Z,6.65
2022-09-09T06:18:57.830Z,5.80
2022-09-09T06:21:29.397Z,6.20
2022-09-09T06:24:01.056Z,6.70
2022-09-09T06:26:32.227Z,6.55
2022-09-09T06:31:35.497Z,5.63
2022-09-09T06:34:12.868Z,6.30
2022-09-09T06:36:45.132Z,6.47
2022-09-09T06:39:16.540Z,6.25
2022-09-09T06:41:49.914Z,6.22
2022-09-09T06:44:45.304Z,5.85
2022-09-09T06:47:21.357Z,5.28
2022-09-09T06:49:52.156Z,5.80
2022-09-09T06:52:21.699Z,5.15
2022-09-09T06:54:54.337Z,4.53
2022-09-09T06:57:36.921Z,3.83
2022-09-09T07:00:09.108Z,4.03
2022-09-09T07:02:40.664Z,4.53
2022-09-09T07:05:12.943Z,3.90
2022-09-09T07:07:44.501Z,4.45
2022-09-09T07:10:15.219Z,4.80
2022-09-09T07:12:44.844Z,4.10
2022-09-09T07:15:15.637Z,4.10
2022-09-09T07:17:47.593Z,4.28
2022-09-09T07:20:19.016Z,4.10
2022-09-09T07:22:48.169Z,2.85
2022-09-09T07:25:19.028Z,3.45
2022-09-09T07:27:49.703Z,3.42
2022-09-09T07:30:25.517Z,3.05
2022-09-09T07:32:58.317Z,3.03
2022-09-09T07:35:29.866Z,3.38
2022-09-09T07:37:59.689Z,3.50
2022-09-09T07:40:30.064Z,3.97
2022-09-09T07:43:00.255Z,3.60
2022-09-09T07:45:30.016Z,4.30
2022-09-09T07:47:59.094Z,4.28
2022-09-09T07:50:30.136Z,3.33
2022-09-09T07:53:00.748Z,4.00
2022-09-09T07:55:30.117Z,3.60
2022-09-09T07:57:59.168Z,3.88
2022-09-09T08:00:29.857Z,4.50
2022-09-09T08:03:03.140Z,4.00
2022-09-09T08:08:04.831Z,4.18
2022-09-09T08:10:34.520Z,3.90
2022-09-09T08:13:19.224Z,4.10
2022-09-09T08:15:51.458Z,3.63
2022-09-09T08:18:23.171Z,3.60
2022-09-09T08:20:53.188Z,3.50
2022-09-09T08:23:23.948Z,3.70
2022-09-09T08:25:53.334Z,3.50
2022-09-09T08:28:22.525Z,3.40
2022-09-09T08:30:52.277Z,3.15
2022-09-09T08:33:21.460Z,3.53
2022-09-09T08:35:53.998Z,3.25
2022-09-09T08:38:32.984Z,3.10
2022-09-09T08:41:08.848Z,3.10
2022-09-09T08:43:38.868Z,3.30
2022-09-09T08:46:12.729Z,2.97
2022-09-09T08:48:49.866Z,3.35
2022-09-09T08:51:18.933Z,3.10
2022-09-09T08:53:55.357Z,3.65
2022-09-09T08:56:29.585Z,3.50
2022-09-09T08:59:02.973Z,3.58
2022-09-09T09:01:47.790Z,3.88
2022-09-09T09:04:31.451Z,3.78
2022-09-09T09:07:05.765Z,3.53
2022-09-09T09:09:46.467Z,3.63
2022-09-09T09:12:18.722Z,3.60
2022-09-09T09:14:49.487Z,3.72
2022-09-09T09:17:21.378Z,3.57
2022-09-09T09:19:51.934Z,3.47
2022-09-09T09:22:23.340Z,3.40
2022-09-09T09:24:59.242Z,4.25
2022-09-09T09:27:34.458Z,3.70
2022-09-09T09:30:25.209Z,4.25
2022-09-09T09:32:59.577Z,4.00
2022-09-09T09:35:29.075Z,3.75
2022-09-09T09:40:56.969Z,4.00
2022-09-09T09:43:28.492Z,3.83
2022-09-09T09:48:59.177Z,4.35
2022-09-09T09:51:30.926Z,4.65
2022-09-09T09:54:10.734Z,4.63
2022-09-09T09:56:45.921Z,4.97
2022-09-09T09:59:38.679Z,6.15
2022-09-09T10:02:18.535Z,5.80
2022-09-09T10:04:50.883Z,6.38
2022-09-09T10:07:21.346Z,5.68
2022-09-09T10:09:53.905Z,5.55
2022-09-09T10:12:29.540Z,5.50
2022-09-09T10:15:04.099Z,5.80
2022-09-09T10:17:39.191Z,6.00
2022-09-09T10:20:20.354Z,6.78
2022-09-09T10:22:53.156Z,7.05
2022-09-09T10:25:31.472Z,6.40
2022-09-09T10:28:12.863Z,6.95
2022-09-09T10:30:50.060Z,7.20
2022-09-09T10:33:23.194Z,7.53
2022-09-09T10:35:56.184Z,6.57
2022-09-09T10:38:29.270Z,6.53
2022-09-09T10:41:05.494Z,6.65
2022-09-09T10:43:49.054Z,6.38
2022-09-09T10:46:23.906Z,6.60
2022-09-09T10:49:05.238Z,5.43
2022-09-09T10:51:42.526Z,5.70
2022-09-09T10:54:18.772Z,5.90
2022-09-09T10:56:51.504Z,5.85
2022-09-09T10:59:25.322Z,5.55
2022-09-09T11:01:56.829Z,5.47
2022-09-09T11:04:28.757Z,5.78
2022-09-09T11:06:58.773Z,5.55
2022-09-09T11:09:30.415Z,5.47
2022-09-09T11:12:00.352Z,5.45
2022-09-09T11:14:36.814Z,6.20
2022-09-09T11:17:10.167Z,5.75
2022-09-09T11:19:41.400Z,5.43
2022-09-09T11:22:15.945Z,6.10
2022-09-09T11:24:48.627Z,5.57
2022-09-09T11:27:19.163Z,5.75
2022-09-09T11:30:32.019Z,4.95
2022-09-09T11:33:20.905Z,5.47
2022-09-09T11:35:57.517Z,4.30
2022-09-09T11:38:28.515Z,3.60
2022-09-09T11:41:00.469Z,3.10
2022-09-09T11:43:31.473Z,2.58
2022-09-09T11:46:03.848Z,2.00
2022-09-09T11:48:36.063Z,2.10
2022-09-09T11:51:16.057Z,2.10
2022-09-09T11:53:53.577Z,2.40
2022-09-09T11:56:31.104Z,2.25
2022-09-09T11:59:03.980Z,2.50
2022-09-09T12:01:43.004Z,2.53
2022-09-09T12:04:22.390Z,2.83
2022-09-09T12:06:54.602Z,2.83
2022-09-09T12:09:27.625Z,2.28
2022-09-09T12:12:08.074Z,2.88
2022-09-09T12:14:39.058Z,2.10
2022-09-09T12:17:21.962Z,2.47
2022-09-09T12:19:51.982Z,1.80
2022-09-09T12:22:28.353Z,2.38
2022-09-09T12:25:01.845Z,2.10
2022-09-09T12:27:35.136Z,1.80
2022-09-09T12:30:07.795Z,2.65
2022-09-09T12:32:40.003Z,1.92
2022-09-09T12:35:17.106Z,2.65
2022-09-09T12:37:51.788Z,1.88
2022-09-09T12:40:22.965Z,1.98
2022-09-09T12:42:52.583Z,2.35
2022-09-09T12:45:26.197Z,2.75
2022-09-09T12:47:58.175Z,2.05
2022-09-09T12:52:59.494Z,2.03
2022-09-09T12:55:31.918Z,2.47
2022-09-09T12:58:01.485Z,2.38
2022-09-09T13:00:31.613Z,2.58
2022-09-09T13:03:02.180Z,2.40
2022-09-09T13:05:37.114Z,1.77
2022-09-09T13:08:08.630Z,2.30
2022-09-09T13:10:52.849Z,2.00
2022-09-09T13:13:24.456Z,1.65
2022-09-09T13:15:55.079Z,2.15
2022-09-09T13:18:25.966Z,2.08
2022-09-09T13:20:58.934Z,2.17
2022-09-09T13:23:31.290Z,2.00
2022-09-09T13:26:01.664Z,2.20
2022-09-09T13:28:33.674Z,1.80
2022-09-09T13:31:04.815Z,1.90
2022-09-09T13:33:35.613Z,1.75
2022-09-09T13:36:06.425Z,2.20
2022-09-09T13:38:39.213Z,1.80
2022-09-09T13:41:09.381Z,1.55
2022-09-09T13:43:40.327Z,1.75
2022-09-09T13:46:25.666Z,2.38
2022-09-09T13:48:58.219Z,2.10
2022-09-09T13:51:38.269Z,1.48
2022-09-09T13:54:12.237Z,1.88
2022-09-09T13:57:02.667Z,1.55
2022-09-09T14:00:11.742Z,2.50
2022-09-09T14:02:41.305Z,1.98
2022-09-09T14:05:10.687Z,2.60
2022-09-09T14:07:41.242Z,2.20
2022-09-09T14:10:12.230Z,2.63
2022-09-09T14:12:41.690Z,2.13
2022-09-09T14:15:13.366Z,2.17
2022-09-09T14:17:43.547Z,1.98
2022-09-09T14:20:16.343Z,2.60
2022-09-09T14:22:46.259Z,1.98
2022-09-09T14:25:16.896Z,1.95
2022-09-09T14:27:46.999Z,1.98
2022-09-09T14:30:16.336Z,1.67
2022-09-09T14:32:46.073Z,1.80
2022-09-09T14:35:15.337Z,1.45
2022-09-09T14:37:44.426Z,1.58
2022-09-09T14:40:15.440Z,1.48
2022-09-09T14:42:45.935Z,1.60
2022-09-09T14:45:15.292Z,1.35
2022-09-09T14:47:44.475Z,1.50
2022-09-09T14:50:15.156Z,1.45
2022-09-09T14:52:44.406Z,1.85
2022-09-09T14:55:13.866Z,1.60
2022-09-09T14:57:42.972Z,1.52
2022-09-09T15:00:14.980Z,1.45
2022-09-09T15:02:44.586Z,1.58
2022-09-09T15:05:14.106Z,1.27
2022-09-09T15:07:43.485Z,1.20
2022-09-09T15:10:13.263Z,1.00
2022-09-09T15:12:45.614Z,1.38
2022-09-09T15:15:16.334Z,1.05
2022-09-09T15:17:45.391Z,1.00
2022-09-09T15:20:14.487Z,0.95
2022-09-09T15:22:44.078Z,0.90
2022-09-09T15:25:13.540Z,0.60
2022-09-09T15:27:42.753Z,0.95
2022-09-09T15:30:12.664Z,1.13
2022-09-09T15:32:43.210Z,0.75
2022-09-09T15:35:12.395Z,0.80
2022-09-09T15:37:41.435Z,0.70
2022-09-09T15:40:11.351Z,0.80
2022-09-09T15:42:40.420Z,1.00
2022-09-09T15:45:10.226Z,0.80
2022-09-09T15:47:40.583Z,1.10
2022-09-09T15:50:11.281Z,0.80
2022-09-09T15:52:40.312Z,1.27
2022-09-09T15:55:10.132Z,0.88
2022-09-09T15:57:39.323Z,0.90
2022-09-09T16:00:09.963Z,0.90
2022-09-09T16:02:39.116Z,0.80
2022-09-09T16:05:08.839Z,0.70
2022-09-09T16:07:39.474Z,0.95
2022-09-09T16:10:09.122Z,0.90
2022-09-09T16:12:38.250Z,1.17
2022-09-09T16:15:08.588Z,1.30
2022-09-09T16:17:38.876Z,1.45
2022-09-09T16:20:09.771Z,2.40
2022-09-09T16:22:41.304Z,1.33
2022-09-09T16:25:12.014Z,1.50
2022-09-09T16:27:41.893Z,1.20
2022-09-09T16:30:12.064Z,1.40
2022-09-09T16:32:41.385Z,1.30
2022-09-09T16:35:13.932Z,1.70
2022-09-09T16:37:45.151Z,1.73
2022-09-09T16:40:14.586Z,2.60
2022-09-09T16:42:43.987Z,2.22
2022-09-09T16:45:13.876Z,3.08
2022-09-09T16:47:43.367Z,3.58
2022-09-09T16:50:12.821Z,2.55
2022-09-09T16:52:42.144Z,2.78
2022-09-09T16:55:16.364Z,2.80
2022-09-09T16:57:46.021Z,3.25
2022-09-09T17:00:15.358Z,4.38
2022-09-09T17:02:46.927Z,4.00
2022-09-09T17:05:16.483Z,3.03
2022-09-09T17:07:45.766Z,3.40
2022-09-09T17:10:16.277Z,4.57
2022-09-09T17:12:47.123Z,3.58
2022-09-09T17:15:17.531Z,3.92
2022-09-09T17:17:50.238Z,3.83
2022-09-09T17:20:19.618Z,3.80
2022-09-09T17:22:49.983Z,4.30
2022-09-09T17:25:20.791Z,4.43
2022-09-09T17:27:49.919Z,4.03
2022-09-09T17:30:19.170Z,4.22
2022-09-09T17:32:49.353Z,4.15
2022-09-09T17:35:18.799Z,4.00
2022-09-09T17:37:48.200Z,3.90
2022-09-09T17:40:17.411Z,3.85
2022-09-09T17:42:48.371Z,4.75
2022-09-09T17:45:18.134Z,3.97
2022-09-09T17:47:48.672Z,4.53
2022-09-09T17:50:18.906Z,4.82
2022-09-09T17:52:48.207Z,4.95
2022-09-09T17:55:18.508Z,4.72
2022-09-09T17:57:49.308Z,4.65
2022-09-09T18:00:18.804Z,4.43
2022-09-09T18:02:48.651Z,4.78
2022-09-09T18:05:19.181Z,4.60
2022-09-09T18:07:49.109Z,4.82
2022-09-09T18:10:18.290Z,5.10
2022-09-09T18:12:48.763Z,4.95
2022-09-09T18:15:24.407Z,4.80
2022-09-09T18:18:08.475Z,5.22
2022-09-09T18:20:37.523Z,5.72
2022-09-09T18:23:06.623Z,4.85
2022-09-09T18:25:39.945Z,5.70
2022-09-09T18:28:11.790Z,5.07
2022-09-09T18:30:41.583Z,5.55
2022-09-09T18:33:11.021Z,5.07
2022-09-09T18:35:40.447Z,4.38
2022-09-09T18:38:09.868Z,4.68
2022-09-09T18:40:39.139Z,4.15
2022-09-09T18:43:08.451Z,4.03
2022-09-09T18:45:39.233Z,3.55
2022-09-09T18:48:08.599Z,3.53
2022-09-09T18:50:37.706Z,3.50
2022-09-09T18:53:06.951Z,3.50
2022-09-09T18:55:36.006Z,3.78
2022-09-09T18:58:05.271Z,3.10
2022-09-09T19:00:34.434Z,3.83
2022-09-09T19:03:05.154Z,3.90
2022-09-09T19:05:35.116Z,4.05
2022-09-09T19:08:04.850Z,4.20
2022-09-09T19:10:37.849Z,3.92
2022-09-09T19:13:07.325Z,4.40
2022-09-09T19:15:37.939Z,3.78
2022-09-09T19:18:08.601Z,4.35
2022-09-09T19:20:38.312Z,4.45
2022-09-09T19:23:07.376Z,5.45
2022-09-09T19:25:38.644Z,4.72
2022-09-09T19:28:07.835Z,5.00
2022-09-09T19:30:40.183Z,5.65
2022-09-09T19:33:10.961Z,5.82
2022-09-09T19:35:40.821Z,6.78
2022-09-09T19:38:10.137Z,6.97
2022-09-09T19:40:40.431Z,7.32
2022-09-09T19:43:09.995Z,6.68
2022-09-09T19:45:43.151Z,6.80
2022-09-09T19:48:14.455Z,6.68
2022-09-09T19:50:44.355Z,6.10
2022-09-09T19:53:13.529Z,6.38
2022-09-09T19:55:43.000Z,5.93
2022-09-09T19:58:14.631Z,6.18
2022-09-09T20:00:44.021Z,6.05
2022-09-09T20:03:19.585Z,6.05
2022-09-09T20:05:50.560Z,6.13
2022-09-09T20:08:19.914Z,5.45
2022-09-09T20:10:53.132Z,5.38
2022-09-09T20:13:22.596Z,4.63
2022-09-09T20:15:58.116Z,4.82
2022-09-09T20:18:32.361Z,5.97
2022-09-09T20:21:02.342Z,3.97
2022-09-09T20:23:31.821Z,4.30
2022-09-09T20:26:03.200Z,4.80
2022-09-09T20:28:32.621Z,4.28
2022-09-09T20:31:05.463Z,4.63
2022-09-09T20:33:37.135Z,4.20
2022-09-09T20:36:11.617Z,4.07
2022-09-09T20:38:43.466Z,4.20
2022-09-09T20:41:14.493Z,4.40
2022-09-09T20:43:49.093Z,4.75
2022-09-09T20:46:19.150Z,4.38
2022-09-09T20:48:50.621Z,4.40
2022-09-09T20:51:21.095Z,4.65
2022-09-09T20:53:50.390Z,3.92
2022-09-09T20:56:20.277Z,4.32
2022-09-09T20:58:49.251Z,3.90
2022-09-09T21:01:19.284Z,4.47
2022-09-09T21:03:50.631Z,4.78
2022-09-09T21:06:20.535Z,4.38
2022-09-09T21:08:49.524Z,4.22
2022-09-09T21:11:18.715Z,5.13
2022-09-09T21:13:48.050Z,4.53
2022-09-09T21:16:19.447Z,4.82
2022-09-09T21:18:50.562Z,4.80
2022-09-09T21:21:21.102Z,5.00
2022-09-09T21:23:51.057Z,4.60
2022-09-09T21:26:20.660Z,4.25
2022-09-09T21:28:49.805Z,5.68
2022-09-09T21:31:19.881Z,5.30
2022-09-09T21:33:50.577Z,4.93
2022-09-09T21:36:19.641Z,5.15
2022-09-09T21:38:48.791Z,5.05
2022-09-09T21:41:19.211Z,5.28
2022-09-09T21:43:52.851Z,5.07
2022-09-09T21:46:23.328Z,4.97
2022-09-09T21:48:55.585Z,5.28
2022-09-09T21:51:24.774Z,5.55
2022-09-09T21:53:56.567Z,6.38
2022-09-09T21:56:26.887Z,5.20
2022-09-09T21:58:57.066Z,5.55
2022-09-09T22:01:26.867Z,5.90
2022-09-09T22:03:57.593Z,5.57
2022-09-09T22:06:26.833Z,6.25
2022-09-09T22:08:57.384Z,6.30
2022-09-09T22:11:26.785Z,6.10
2022-09-09T22:13:56.051Z,6.35
2022-09-09T22:16:25.908Z,7.10
2022-09-09T22:18:56.838Z,7.32
2022-09-09T22:21:28.413Z,7.30
2022-09-09T22:23:58.410Z,7.30
2022-09-09T22:26:28.180Z,7.40
2022-09-09T22:28:57.958Z,7.70
2022-09-09T22:31:27.601Z,7.85
2022-09-09T22:33:56.896Z,7.85
2022-09-09T22:36:27.727Z,9.00
2022-09-09T22:38:56.997Z,7.32
2022-09-09T22:41:26.573Z,7.97
2022-09-09T22:43:56.101Z,9.25
2022-09-09T22:46:25.235Z,9.25
2022-09-09T22:48:54.497Z,10.15
2022-09-09T22:51:23.446Z,9.52
2022-09-09T22:53:53.859Z,8.93
2022-09-09T22:56:22.987Z,9.02
2022-09-09T22:58:55.670Z,9.90
2022-09-09T23:01:26.342Z,9.80
2022-09-09T23:03:59.208Z,10.48
2022-09-09T23:06:29.140Z,10.02
2022-09-09T23:09:00.577Z,10.07
2022-09-09T23:11:31.718Z,9.32
2022-09-09T23:14:02.443Z,9.82
2022-09-09T23:16:32.948Z,10.18
2022-09-09T23:19:03.018Z,11.93
2022-09-09T23:21:32.664Z,9.80
2022-09-09T23:24:03.472Z,10.48
2022-09-09T23:26:33.051Z,9.85
2022-09-09T23:29:03.237Z,10.80
2022-09-09T23:31:34.024Z,11.02
2022-09-09T23:34:03.205Z,11.20
2022-09-09T23:36:32.691Z,10.23
2022-09-09T23:39:04.587Z,10.40
2022-09-09T23:41:35.115Z,10.65
2022-09-09T23:44:05.180Z,10.40
2022-09-09T23:46:35.088Z,11.43
2022-09-09T23:49:05.101Z,10.95
2022-09-09T23:51:34.891Z,11.13
2022-09-09T23:54:06.499Z,11.65
2022-09-09T23:56:37.865Z,12.52
2022-09-09T23:59:07.076Z,12.30
